Weather at Rayne Airport

Public forecast

Using degrees Fahrenheit for public forecast. Weather courtesy of forecast.io.

Closest aviation weather report (METAR) to Rayne Airport

Closest report is Indiana County/Jimmy Stewart Fld/ Airport, 6.3 nm (11.7 km) SSW. Retrieved 2020/09/27 03:35 UTC (0 seconds ago):

KIDI 270335Z AUTO 00000KT 10SM SCT042 17/16 A3003 RMK A01

Closest aviation forecast (TAF) to Rayne Airport

Closest forecast is John Murtha Johnstown Cambria County Airport, 27.2 nm (50.4 km) SSE. Retrieved 2020-09-27 00:22 UTC (3 hours ago):

TAF KJST 262320Z 2700/2724 14003KT P6SM OVC045 FM270200 16005KT P6SM SCT045 FM270500 17004KT 6SM BR BKN025 TEMPO 2708/2712 5SM BR BKN018 FM271400 20009KT P6SM BKN025